sensor_id;sensor_type;location;lat;lon;timestamp;P1;durP1;ratioP1;P2;durP2;ratioP2
6434;SDS011;3250;42.694;23.278;2022-07-23T00:00:54;11.88;;;6.18;;
6434;SDS011;3250;42.694;23.278;2022-07-23T00:03:20;12.90;;;6.53;;
6434;SDS011;3250;42.694;23.278;2022-07-23T00:05:45;13.57;;;6.85;;
6434;SDS011;3250;42.694;23.278;2022-07-23T00:08:10;11.43;;;6.38;;
6434;SDS011;3250;42.694;23.278;2022-07-23T00:10:36;17.92;;;7.47;;
6434;SDS011;3250;42.694;23.278;2022-07-23T00:13:02;13.05;;;6.32;;
6434;SDS011;3250;42.694;23.278;2022-07-23T00:15:28;10.18;;;6.28;;
6434;SDS011;3250;42.694;23.278;2022-07-23T00:17:53;11.52;;;6.35;;
6434;SDS011;3250;42.694;23.278;2022-07-23T00:20:19;10.20;;;6.72;;
6434;SDS011;3250;42.694;23.278;2022-07-23T00:22:48;12.00;;;7.20;;
6434;SDS011;3250;42.694;23.278;2022-07-23T00:25:15;12.10;;;7.45;;
6434;SDS011;3250;42.694;23.278;2022-07-23T00:27:41;15.73;;;7.03;;
6434;SDS011;3250;42.694;23.278;2022-07-23T00:30:07;11.02;;;6.88;;
6434;SDS011;3250;42.694;23.278;2022-07-23T00:32:44;11.63;;;6.15;;
6434;SDS011;3250;42.694;23.278;2022-07-23T00:35:12;16.60;;;6.75;;
6434;SDS011;3250;42.694;23.278;2022-07-23T00:37:38;9.10;;;6.15;;
6434;SDS011;3250;42.694;23.278;2022-07-23T00:40:03;15.95;;;6.47;;
6434;SDS011;3250;42.694;23.278;2022-07-23T00:42:30;15.60;;;6.28;;
6434;SDS011;3250;42.694;23.278;2022-07-23T00:44:56;11.23;;;6.15;;
6434;SDS011;3250;42.694;23.278;2022-07-23T00:47:21;9.98;;;5.55;;
6434;SDS011;3250;42.694;23.278;2022-07-23T00:49:47;27.13;;;13.30;;
6434;SDS011;3250;42.694;23.278;2022-07-23T00:52:13;32.30;;;18.60;;
6434;SDS011;3250;42.694;23.278;2022-07-23T00:54:38;15.48;;;8.90;;
6434;SDS011;3250;42.694;23.278;2022-07-23T00:57:04;13.30;;;6.80;;
6434;SDS011;3250;42.694;23.278;2022-07-23T00:59:30;11.63;;;6.25;;
6434;SDS011;3250;42.694;23.278;2022-07-23T01:01:55;13.85;;;6.32;;
6434;SDS011;3250;42.694;23.278;2022-07-23T01:04:20;12.73;;;5.53;;
6434;SDS011;3250;42.694;23.278;2022-07-23T01:06:46;15.88;;;5.78;;
6434;SDS011;3250;42.694;23.278;2022-07-23T01:09:12;10.52;;;6.63;;
6434;SDS011;3250;42.694;23.278;2022-07-23T01:11:38;8.93;;;5.65;;
6434;SDS011;3250;42.694;23.278;2022-07-23T01:14:22;15.27;;;5.90;;
6434;SDS011;3250;42.694;23.278;2022-07-23T01:16:48;8.18;;;6.00;;
6434;SDS011;3250;42.694;23.278;2022-07-23T01:19:15;14.80;;;6.05;;
6434;SDS011;3250;42.694;23.278;2022-07-23T01:21:42;9.80;;;5.40;;
6434;SDS011;3250;42.694;23.278;2022-07-23T01:24:10;11.70;;;6.63;;
6434;SDS011;3250;42.694;23.278;2022-07-23T01:26:37;13.10;;;6.25;;
6434;SDS011;3250;42.694;23.278;2022-07-23T01:29:05;13.85;;;5.85;;
6434;SDS011;3250;42.694;23.278;2022-07-23T01:31:31;11.60;;;6.38;;
6434;SDS011;3250;42.694;23.278;2022-07-23T01:33:57;12.07;;;6.47;;
6434;SDS011;3250;42.694;23.278;2022-07-23T01:36:22;21.42;;;7.32;;
6434;SDS011;3250;42.694;23.278;2022-07-23T01:38:48;30.13;;;17.40;;
6434;SDS011;3250;42.694;23.278;2022-07-23T01:41:13;25.55;;;14.60;;
6434;SDS011;3250;42.694;23.278;2022-07-23T01:43:39;28.38;;;16.45;;
6434;SDS011;3250;42.694;23.278;2022-07-23T01:46:04;22.80;;;12.05;;
6434;SDS011;3250;42.694;23.278;2022-07-23T01:48:30;19.08;;;8.70;;
6434;SDS011;3250;42.694;23.278;2022-07-23T01:50:56;15.30;;;8.20;;
6434;SDS011;3250;42.694;23.278;2022-07-23T01:53:21;13.40;;;7.75;;
6434;SDS011;3250;42.694;23.278;2022-07-23T01:55:47;19.55;;;7.40;;
6434;SDS011;3250;42.694;23.278;2022-07-23T01:58:13;16.25;;;8.18;;
6434;SDS011;3250;42.694;23.278;2022-07-23T02:00:38;17.02;;;8.68;;
6434;SDS011;3250;42.694;23.278;2022-07-23T02:03:03;9.65;;;6.45;;
6434;SDS011;3250;42.694;23.278;2022-07-23T02:05:29;11.88;;;6.25;;
6434;SDS011;3250;42.694;23.278;2022-07-23T02:07:56;17.33;;;9.20;;
6434;SDS011;3250;42.694;23.278;2022-07-23T02:10:22;31.40;;;16.83;;
6434;SDS011;3250;42.694;23.278;2022-07-23T02:12:48;16.42;;;9.38;;
6434;SDS011;3250;42.694;23.278;2022-07-23T02:15:13;16.30;;;8.98;;
6434;SDS011;3250;42.694;23.278;2022-07-23T02:17:39;16.17;;;7.32;;
6434;SDS011;3250;42.694;23.278;2022-07-23T02:20:05;11.55;;;7.88;;
6434;SDS011;3250;42.694;23.278;2022-07-23T02:22:32;15.55;;;8.20;;
6434;SDS011;3250;42.694;23.278;2022-07-23T02:24:57;14.43;;;8.65;;
6434;SDS011;3250;42.694;23.278;2022-07-23T02:27:23;17.70;;;9.13;;
6434;SDS011;3250;42.694;23.278;2022-07-23T02:29:48;13.27;;;9.07;;
6434;SDS011;3250;42.694;23.278;2022-07-23T02:32:14;20.30;;;9.77;;
6434;SDS011;3250;42.694;23.278;2022-07-23T02:34:40;15.63;;;9.13;;
6434;SDS011;3250;42.694;23.278;2022-07-23T02:37:05;20.05;;;7.85;;
6434;SDS011;3250;42.694;23.278;2022-07-23T02:39:30;10.40;;;7.10;;
6434;SDS011;3250;42.694;23.278;2022-07-23T02:41:56;17.30;;;8.35;;
6434;SDS011;3250;42.694;23.278;2022-07-23T02:44:21;14.55;;;7.80;;
6434;SDS011;3250;42.694;23.278;2022-07-23T02:46:47;14.55;;;6.75;;
6434;SDS011;3250;42.694;23.278;2022-07-23T02:49:12;12.35;;;7.40;;
6434;SDS011;3250;42.694;23.278;2022-07-23T02:51:37;15.57;;;7.13;;
6434;SDS011;3250;42.694;23.278;2022-07-23T02:54:03;16.42;;;7.05;;
6434;SDS011;3250;42.694;23.278;2022-07-23T02:56:28;15.98;;;7.38;;
6434;SDS011;3250;42.694;23.278;2022-07-23T02:58:54;10.48;;;6.45;;
6434;SDS011;3250;42.694;23.278;2022-07-23T03:01:19;12.45;;;6.13;;
6434;SDS011;3250;42.694;23.278;2022-07-23T03:03:44;14.38;;;5.78;;
6434;SDS011;3250;42.694;23.278;2022-07-23T03:06:10;12.43;;;5.93;;
6434;SDS011;3250;42.694;23.278;2022-07-23T03:08:35;8.60;;;5.97;;
6434;SDS011;3250;42.694;23.278;2022-07-23T03:11:02;11.98;;;6.22;;
6434;SDS011;3250;42.694;23.278;2022-07-23T03:13:28;20.33;;;6.80;;
6434;SDS011;3250;42.694;23.278;2022-07-23T03:15:54;9.27;;;6.22;;
6434;SDS011;3250;42.694;23.278;2022-07-23T03:18:19;11.02;;;6.28;;
6434;SDS011;3250;42.694;23.278;2022-07-23T03:20:45;18.27;;;6.35;;
6434;SDS011;3250;42.694;23.278;2022-07-23T03:23:10;9.27;;;5.85;;
6434;SDS011;3250;42.694;23.278;2022-07-23T03:25:36;13.65;;;6.50;;
6434;SDS011;3250;42.694;23.278;2022-07-23T03:28:01;15.13;;;6.45;;
6434;SDS011;3250;42.694;23.278;2022-07-23T03:30:27;15.77;;;6.47;;
6434;SDS011;3250;42.694;23.278;2022-07-23T03:32:52;15.75;;;6.22;;
6434;SDS011;3250;42.694;23.278;2022-07-23T03:35:18;19.70;;;9.93;;
6434;SDS011;3250;42.694;23.278;2022-07-23T03:37:43;23.48;;;13.55;;
6434;SDS011;3250;42.694;23.278;2022-07-23T03:40:09;34.72;;;18.90;;
6434;SDS011;3250;42.694;23.278;2022-07-23T03:42:34;23.13;;;9.50;;
6434;SDS011;3250;42.694;23.278;2022-07-23T03:45:03;16.63;;;10.80;;
6434;SDS011;3250;42.694;23.278;2022-07-23T03:47:29;13.45;;;7.75;;
6434;SDS011;3250;42.694;23.278;2022-07-23T03:49:54;21.85;;;9.75;;
6434;SDS011;3250;42.694;23.278;2022-07-23T03:52:20;20.20;;;6.70;;
6434;SDS011;3250;42.694;23.278;2022-07-23T03:54:45;14.23;;;7.75;;
6434;SDS011;3250;42.694;23.278;2022-07-23T03:57:11;12.63;;;7.10;;
6434;SDS011;3250;42.694;23.278;2022-07-23T03:59:36;18.00;;;11.10;;
6434;SDS011;3250;42.694;23.278;2022-07-23T04:02:01;20.92;;;9.88;;
6434;SDS011;3250;42.694;23.278;2022-07-23T04:04:27;19.58;;;11.10;;
6434;SDS011;3250;42.694;23.278;2022-07-23T04:06:52;11.82;;;6.93;;
6434;SDS011;3250;42.694;23.278;2022-07-23T04:09:18;11.10;;;6.03;;
6434;SDS011;3250;42.694;23.278;2022-07-23T04:11:43;10.40;;;6.88;;
6434;SDS011;3250;42.694;23.278;2022-07-23T04:14:09;20.70;;;8.82;;
6434;SDS011;3250;42.694;23.278;2022-07-23T04:16:34;12.82;;;7.20;;
6434;SDS011;3250;42.694;23.278;2022-07-23T04:19:00;13.65;;;8.20;;
6434;SDS011;3250;42.694;23.278;2022-07-23T04:21:25;13.95;;;6.72;;
6434;SDS011;3250;42.694;23.278;2022-07-23T04:23:51;13.52;;;6.82;;
6434;SDS011;3250;42.694;23.278;2022-07-23T04:26:16;13.70;;;5.88;;
6434;SDS011;3250;42.694;23.278;2022-07-23T04:28:42;7.80;;;6.00;;
6434;SDS011;3250;42.694;23.278;2022-07-23T04:31:07;8.98;;;6.47;;
6434;SDS011;3250;42.694;23.278;2022-07-23T04:33:33;10.27;;;6.18;;
6434;SDS011;3250;42.694;23.278;2022-07-23T04:35:58;9.40;;;5.57;;
6434;SDS011;3250;42.694;23.278;2022-07-23T04:38:24;9.63;;;5.57;;
6434;SDS011;3250;42.694;23.278;2022-07-23T04:40:49;7.30;;;5.47;;
6434;SDS011;3250;42.694;23.278;2022-07-23T04:43:15;12.80;;;6.53;;
6434;SDS011;3250;42.694;23.278;2022-07-23T04:45:40;10.88;;;5.68;;
6434;SDS011;3250;42.694;23.278;2022-07-23T04:48:06;17.25;;;6.85;;
6434;SDS011;3250;42.694;23.278;2022-07-23T04:50:31;28.15;;;16.45;;
6434;SDS011;3250;42.694;23.278;2022-07-23T04:52:57;11.20;;;6.45;;
6434;SDS011;3250;42.694;23.278;2022-07-23T04:55:22;22.50;;;7.53;;
6434;SDS011;3250;42.694;23.278;2022-07-23T04:57:47;14.05;;;8.38;;
6434;SDS011;3250;42.694;23.278;2022-07-23T05:00:13;12.98;;;6.22;;
6434;SDS011;3250;42.694;23.278;2022-07-23T05:02:39;11.60;;;6.75;;
6434;SDS011;3250;42.694;23.278;2022-07-23T05:05:04;10.82;;;6.32;;
6434;SDS011;3250;42.694;23.278;2022-07-23T05:07:30;12.57;;;6.60;;
6434;SDS011;3250;42.694;23.278;2022-07-23T05:09:55;13.15;;;7.43;;
6434;SDS011;3250;42.694;23.278;2022-07-23T05:12:21;12.38;;;7.70;;
6434;SDS011;3250;42.694;23.278;2022-07-23T05:14:46;13.48;;;7.15;;
6434;SDS011;3250;42.694;23.278;2022-07-23T05:17:12;13.98;;;6.47;;
6434;SDS011;3250;42.694;23.278;2022-07-23T05:19:37;16.52;;;6.63;;
6434;SDS011;3250;42.694;23.278;2022-07-23T05:22:02;12.25;;;5.30;;
6434;SDS011;3250;42.694;23.278;2022-07-23T05:24:28;17.45;;;6.28;;
6434;SDS011;3250;42.694;23.278;2022-07-23T05:26:53;16.95;;;7.15;;
6434;SDS011;3250;42.694;23.278;2022-07-23T05:29:19;11.73;;;6.80;;
6434;SDS011;3250;42.694;23.278;2022-07-23T05:31:44;11.48;;;6.65;;
6434;SDS011;3250;42.694;23.278;2022-07-23T05:34:09;13.48;;;6.78;;
6434;SDS011;3250;42.694;23.278;2022-07-23T05:36:35;11.02;;;6.28;;
6434;SDS011;3250;42.694;23.278;2022-07-23T05:39:01;10.88;;;6.20;;
6434;SDS011;3250;42.694;23.278;2022-07-23T05:41:27;11.65;;;6.90;;
6434;SDS011;3250;42.694;23.278;2022-07-23T05:43:53;14.95;;;6.45;;
6434;SDS011;3250;42.694;23.278;2022-07-23T05:46:18;11.73;;;6.25;;
6434;SDS011;3250;42.694;23.278;2022-07-23T05:48:44;12.15;;;5.75;;
6434;SDS011;3250;42.694;23.278;2022-07-23T05:51:11;11.70;;;6.30;;
6434;SDS011;3250;42.694;23.278;2022-07-23T05:53:36;13.07;;;5.88;;
6434;SDS011;3250;42.694;23.278;2022-07-23T05:56:02;9.80;;;5.38;;
6434;SDS011;3250;42.694;23.278;2022-07-23T05:58:28;11.45;;;5.47;;
6434;SDS011;3250;42.694;23.278;2022-07-23T06:00:53;15.27;;;6.20;;
6434;SDS011;3250;42.694;23.278;2022-07-23T06:03:18;15.60;;;6.43;;
6434;SDS011;3250;42.694;23.278;2022-07-23T06:05:44;13.10;;;6.07;;
6434;SDS011;3250;42.694;23.278;2022-07-23T06:08:10;14.55;;;6.60;;
6434;SDS011;3250;42.694;23.278;2022-07-23T06:10:35;8.85;;;5.28;;
6434;SDS011;3250;42.694;23.278;2022-07-23T06:13:01;11.82;;;6.35;;
6434;SDS011;3250;42.694;23.278;2022-07-23T06:15:27;17.50;;;5.57;;
6434;SDS011;3250;42.694;23.278;2022-07-23T06:17:52;9.80;;;5.28;;
6434;SDS011;3250;42.694;23.278;2022-07-23T06:20:18;13.23;;;7.40;;
6434;SDS011;3250;42.694;23.278;2022-07-23T06:22:43;8.73;;;5.40;;
6434;SDS011;3250;42.694;23.278;2022-07-23T06:25:09;13.30;;;5.38;;
6434;SDS011;3250;42.694;23.278;2022-07-23T06:27:34;11.40;;;5.45;;
6434;SDS011;3250;42.694;23.278;2022-07-23T06:29:59;8.60;;;5.43;;
6434;SDS011;3250;42.694;23.278;2022-07-23T06:32:25;33.83;;;7.40;;
6434;SDS011;3250;42.694;23.278;2022-07-23T06:34:50;14.77;;;5.72;;
6434;SDS011;3250;42.694;23.278;2022-07-23T06:37:16;10.38;;;5.68;;
6434;SDS011;3250;42.694;23.278;2022-07-23T06:39:41;10.02;;;5.50;;
6434;SDS011;3250;42.694;23.278;2022-07-23T06:42:07;9.18;;;5.60;;
6434;SDS011;3250;42.694;23.278;2022-07-23T06:44:32;12.18;;;6.15;;
6434;SDS011;3250;42.694;23.278;2022-07-23T06:46:58;13.05;;;5.75;;
6434;SDS011;3250;42.694;23.278;2022-07-23T06:49:23;21.00;;;6.90;;
6434;SDS011;3250;42.694;23.278;2022-07-23T06:51:49;11.77;;;5.55;;
6434;SDS011;3250;42.694;23.278;2022-07-23T06:54:14;8.93;;;5.60;;
6434;SDS011;3250;42.694;23.278;2022-07-23T06:56:39;12.95;;;5.82;;
6434;SDS011;3250;42.694;23.278;2022-07-23T06:59:05;12.52;;;5.75;;
6434;SDS011;3250;42.694;23.278;2022-07-23T07:01:31;11.50;;;5.97;;
6434;SDS011;3250;42.694;23.278;2022-07-23T07:03:56;11.25;;;6.72;;
6434;SDS011;3250;42.694;23.278;2022-07-23T07:06:22;12.18;;;6.25;;
6434;SDS011;3250;42.694;23.278;2022-07-23T07:08:47;12.75;;;6.10;;
6434;SDS011;3250;42.694;23.278;2022-07-23T07:11:13;12.90;;;6.28;;
6434;SDS011;3250;42.694;23.278;2022-07-23T07:13:38;13.55;;;6.40;;
6434;SDS011;3250;42.694;23.278;2022-07-23T07:16:04;11.52;;;6.00;;
6434;SDS011;3250;42.694;23.278;2022-07-23T07:18:29;8.82;;;5.35;;
6434;SDS011;3250;42.694;23.278;2022-07-23T07:20:55;13.13;;;6.03;;
6434;SDS011;3250;42.694;23.278;2022-07-23T07:23:21;9.45;;;5.95;;
6434;SDS011;3250;42.694;23.278;2022-07-23T07:25:47;8.98;;;5.75;;
6434;SDS011;3250;42.694;23.278;2022-07-23T07:28:12;11.00;;;7.28;;
6434;SDS011;3250;42.694;23.278;2022-07-23T07:30:38;14.20;;;6.53;;
6434;SDS011;3250;42.694;23.278;2022-07-23T07:33:03;15.52;;;6.07;;
6434;SDS011;3250;42.694;23.278;2022-07-23T07:35:29;10.70;;;5.63;;
6434;SDS011;3250;42.694;23.278;2022-07-23T07:37:56;12.80;;;6.30;;
6434;SDS011;3250;42.694;23.278;2022-07-23T07:40:21;13.63;;;6.07;;
6434;SDS011;3250;42.694;23.278;2022-07-23T07:42:47;14.93;;;7.43;;
6434;SDS011;3250;42.694;23.278;2022-07-23T07:45:14;11.70;;;6.25;;
6434;SDS011;3250;42.694;23.278;2022-07-23T07:47:40;13.55;;;5.63;;
6434;SDS011;3250;42.694;23.278;2022-07-23T07:50:06;9.68;;;5.75;;
6434;SDS011;3250;42.694;23.278;2022-07-23T07:52:33;12.07;;;6.13;;
6434;SDS011;3250;42.694;23.278;2022-07-23T07:55:01;9.63;;;6.18;;
6434;SDS011;3250;42.694;23.278;2022-07-23T07:57:29;13.95;;;6.75;;
6434;SDS011;3250;42.694;23.278;2022-07-23T07:59:54;17.02;;;6.38;;
6434;SDS011;3250;42.694;23.278;2022-07-23T08:02:20;11.25;;;5.93;;
6434;SDS011;3250;42.694;23.278;2022-07-23T08:04:45;9.25;;;5.55;;
6434;SDS011;3250;42.694;23.278;2022-07-23T08:07:11;13.45;;;6.45;;
6434;SDS011;3250;42.694;23.278;2022-07-23T08:09:36;11.07;;;6.13;;
6434;SDS011;3250;42.694;23.278;2022-07-23T08:12:01;11.77;;;5.60;;
6434;SDS011;3250;42.694;23.278;2022-07-23T08:14:27;14.15;;;5.78;;
6434;SDS011;3250;42.694;23.278;2022-07-23T08:16:52;11.60;;;5.45;;
6434;SDS011;3250;42.694;23.278;2022-07-23T08:19:18;13.70;;;6.15;;
6434;SDS011;3250;42.694;23.278;2022-07-23T08:21:43;16.42;;;6.47;;
6434;SDS011;3250;42.694;23.278;2022-07-23T08:24:08;11.50;;;6.70;;
6434;SDS011;3250;42.694;23.278;2022-07-23T08:26:34;15.20;;;7.32;;
6434;SDS011;3250;42.694;23.278;2022-07-23T08:28:59;11.68;;;5.68;;
6434;SDS011;3250;42.694;23.278;2022-07-23T08:31:25;8.18;;;6.20;;
6434;SDS011;3250;42.694;23.278;2022-07-23T08:33:50;11.02;;;6.30;;
6434;SDS011;3250;42.694;23.278;2022-07-23T08:36:17;12.68;;;6.53;;
6434;SDS011;3250;42.694;23.278;2022-07-23T08:38:43;11.77;;;6.60;;
6434;SDS011;3250;42.694;23.278;2022-07-23T08:41:08;10.68;;;5.50;;
6434;SDS011;3250;42.694;23.278;2022-07-23T08:43:34;15.65;;;5.53;;
6434;SDS011;3250;42.694;23.278;2022-07-23T08:46:01;10.80;;;5.65;;
6434;SDS011;3250;42.694;23.278;2022-07-23T08:48:28;12.77;;;6.07;;
6434;SDS011;3250;42.694;23.278;2022-07-23T08:50:56;14.18;;;6.38;;
6434;SDS011;3250;42.694;23.278;2022-07-23T08:53:24;10.80;;;5.80;;
6434;SDS011;3250;42.694;23.278;2022-07-23T08:55:51;17.25;;;5.95;;
6434;SDS011;3250;42.694;23.278;2022-07-23T08:58:18;13.55;;;6.07;;
6434;SDS011;3250;42.694;23.278;2022-07-23T09:00:44;9.70;;;6.50;;
6434;SDS011;3250;42.694;23.278;2022-07-23T09:03:23;9.88;;;6.13;;
6434;SDS011;3250;42.694;23.278;2022-07-23T09:05:59;11.65;;;5.28;;
6434;SDS011;3250;42.694;23.278;2022-07-23T09:11:10;11.23;;;6.18;;
6434;SDS011;3250;42.694;23.278;2022-07-23T09:16:18;10.93;;;5.10;;
6434;SDS011;3250;42.694;23.278;2022-07-23T09:18:51;8.52;;;5.28;;
6434;SDS011;3250;42.694;23.278;2022-07-23T09:21:26;10.52;;;5.90;;
6434;SDS011;3250;42.694;23.278;2022-07-23T09:24:03;9.30;;;5.35;;
6434;SDS011;3250;42.694;23.278;2022-07-23T09:29:00;17.70;;;5.80;;
6434;SDS011;3250;42.694;23.278;2022-07-23T09:31:30;14.80;;;6.10;;
6434;SDS011;3250;42.694;23.278;2022-07-23T09:34:18;11.45;;;5.07;;
6434;SDS011;3250;42.694;23.278;2022-07-23T09:36:48;7.60;;;4.32;;
6434;SDS011;3250;42.694;23.278;2022-07-23T09:39:16;10.30;;;4.60;;
6434;SDS011;3250;42.694;23.278;2022-07-23T09:41:50;7.75;;;5.30;;
6434;SDS011;3250;42.694;23.278;2022-07-23T09:44:16;11.70;;;5.13;;
6434;SDS011;3250;42.694;23.278;2022-07-23T09:46:45;15.73;;;5.70;;
6434;SDS011;3250;42.694;23.278;2022-07-23T09:49:21;9.77;;;4.88;;
6434;SDS011;3250;42.694;23.278;2022-07-23T09:51:53;8.50;;;4.95;;
6434;SDS011;3250;42.694;23.278;2022-07-23T09:54:42;9.73;;;4.90;;
6434;SDS011;3250;42.694;23.278;2022-07-23T09:57:10;9.38;;;4.95;;
6434;SDS011;3250;42.694;23.278;2022-07-23T09:59:40;9.38;;;4.70;;
6434;SDS011;3250;42.694;23.278;2022-07-23T10:02:08;8.00;;;5.35;;
6434;SDS011;3250;42.694;23.278;2022-07-23T10:04:36;10.63;;;5.00;;
6434;SDS011;3250;42.694;23.278;2022-07-23T10:07:02;17.95;;;4.95;;
6434;SDS011;3250;42.694;23.278;2022-07-23T10:09:31;9.90;;;5.22;;
6434;SDS011;3250;42.694;23.278;2022-07-23T10:11:59;9.43;;;5.18;;
6434;SDS011;3250;42.694;23.278;2022-07-23T10:14:34;12.68;;;5.30;;
6434;SDS011;3250;42.694;23.278;2022-07-23T10:17:01;11.15;;;5.30;;
6434;SDS011;3250;42.694;23.278;2022-07-23T10:19:28;12.15;;;5.47;;
6434;SDS011;3250;42.694;23.278;2022-07-23T10:21:58;8.68;;;4.85;;
6434;SDS011;3250;42.694;23.278;2022-07-23T10:38:12;8.45;;;4.70;;
6434;SDS011;3250;42.694;23.278;2022-07-23T10:40:56;12.70;;;4.30;;
6434;SDS011;3250;42.694;23.278;2022-07-23T10:43:24;7.60;;;4.82;;
6434;SDS011;3250;42.694;23.278;2022-07-23T10:45:50;11.25;;;4.32;;
6434;SDS011;3250;42.694;23.278;2022-07-23T10:50:42;14.75;;;5.00;;
6434;SDS011;3250;42.694;23.278;2022-07-23T10:53:10;9.38;;;4.22;;
6434;SDS011;3250;42.694;23.278;2022-07-23T10:58:04;14.05;;;4.88;;
6434;SDS011;3250;42.694;23.278;2022-07-23T11:00:34;6.80;;;3.78;;
6434;SDS011;3250;42.694;23.278;2022-07-23T11:03:05;10.48;;;4.53;;
6434;SDS011;3250;42.694;23.278;2022-07-23T11:05:53;7.85;;;4.53;;
6434;SDS011;3250;42.694;23.278;2022-07-23T11:08:19;8.63;;;4.55;;
6434;SDS011;3250;42.694;23.278;2022-07-23T11:10:49;9.65;;;3.70;;
6434;SDS011;3250;42.694;23.278;2022-07-23T11:34:34;10.57;;;3.55;;
6434;SDS011;3250;42.694;23.278;2022-07-23T11:37:01;12.32;;;4.35;;
6434;SDS011;3250;42.694;23.278;2022-07-23T11:39:29;17.33;;;4.43;;
6434;SDS011;3250;42.694;23.278;2022-07-23T11:41:55;14.25;;;4.03;;
6434;SDS011;3250;42.694;23.278;2022-07-23T11:44:29;16.80;;;4.72;;
6434;SDS011;3250;42.694;23.278;2022-07-23T11:49:22;13.30;;;3.83;;
6434;SDS011;3250;42.694;23.278;2022-07-23T11:52:01;9.80;;;3.65;;
6434;SDS011;3250;42.694;23.278;2022-07-23T11:54:33;11.73;;;5.15;;
6434;SDS011;3250;42.694;23.278;2022-07-23T11:57:00;14.75;;;4.35;;
6434;SDS011;3250;42.694;23.278;2022-07-23T11:59:28;15.20;;;4.55;;
6434;SDS011;3250;42.694;23.278;2022-07-23T12:01:57;15.82;;;3.97;;
6434;SDS011;3250;42.694;23.278;2022-07-23T12:04:24;25.52;;;5.30;;
6434;SDS011;3250;42.694;23.278;2022-07-23T12:07:01;10.70;;;4.13;;
6434;SDS011;3250;42.694;23.278;2022-07-23T12:09:27;13.48;;;4.47;;
6434;SDS011;3250;42.694;23.278;2022-07-23T12:11:56;15.02;;;4.32;;
6434;SDS011;3250;42.694;23.278;2022-07-23T12:14:26;9.98;;;4.50;;
6434;SDS011;3250;42.694;23.278;2022-07-23T12:17:08;11.10;;;3.45;;
6434;SDS011;3250;42.694;23.278;2022-07-23T12:19:34;9.48;;;3.53;;
6434;SDS011;3250;42.694;23.278;2022-07-23T12:22:00;12.98;;;4.07;;
6434;SDS011;3250;42.694;23.278;2022-07-23T12:24:25;17.70;;;5.00;;
6434;SDS011;3250;42.694;23.278;2022-07-23T12:27:10;20.13;;;5.10;;
6434;SDS011;3250;42.694;23.278;2022-07-23T12:29:36;11.65;;;5.20;;
6434;SDS011;3250;42.694;23.278;2022-07-23T12:32:15;16.35;;;5.13;;
6434;SDS011;3250;42.694;23.278;2022-07-23T12:35:04;12.50;;;3.60;;
6434;SDS011;3250;42.694;23.278;2022-07-23T12:37:35;16.95;;;4.28;;
6434;SDS011;3250;42.694;23.278;2022-07-23T12:43:08;9.27;;;4.30;;
6434;SDS011;3250;42.694;23.278;2022-07-23T12:45:42;11.13;;;4.20;;
6434;SDS011;3250;42.694;23.278;2022-07-23T12:48:08;10.63;;;4.22;;
6434;SDS011;3250;42.694;23.278;2022-07-23T12:50:41;11.02;;;3.80;;
6434;SDS011;3250;42.694;23.278;2022-07-23T12:53:15;12.73;;;4.32;;
6434;SDS011;3250;42.694;23.278;2022-07-23T12:55:45;11.40;;;3.65;;
6434;SDS011;3250;42.694;23.278;2022-07-23T12:58:13;12.20;;;3.97;;
6434;SDS011;3250;42.694;23.278;2022-07-23T13:03:26;21.58;;;6.07;;
6434;SDS011;3250;42.694;23.278;2022-07-23T13:05:55;15.00;;;5.07;;
6434;SDS011;3250;42.694;23.278;2022-07-23T13:08:22;9.88;;;4.72;;
6434;SDS011;3250;42.694;23.278;2022-07-23T13:10:48;7.15;;;3.80;;
6434;SDS011;3250;42.694;23.278;2022-07-23T13:13:16;6.13;;;3.63;;
6434;SDS011;3250;42.694;23.278;2022-07-23T13:15:44;11.43;;;3.95;;
6434;SDS011;3250;42.694;23.278;2022-07-23T13:18:10;10.27;;;3.58;;
6434;SDS011;3250;42.694;23.278;2022-07-23T13:20:35;17.25;;;4.82;;
6434;SDS011;3250;42.694;23.278;2022-07-23T13:23:03;10.88;;;4.25;;
6434;SDS011;3250;42.694;23.278;2022-07-23T13:25:29;18.35;;;4.53;;
6434;SDS011;3250;42.694;23.278;2022-07-23T13:27:54;10.10;;;3.55;;
6434;SDS011;3250;42.694;23.278;2022-07-23T13:30:20;7.95;;;4.30;;
6434;SDS011;3250;42.694;23.278;2022-07-23T13:32:45;8.60;;;4.20;;
6434;SDS011;3250;42.694;23.278;2022-07-23T13:35:13;11.82;;;4.53;;
6434;SDS011;3250;42.694;23.278;2022-07-23T13:37:38;10.07;;;4.28;;
6434;SDS011;3250;42.694;23.278;2022-07-23T13:40:04;8.65;;;3.50;;
6434;SDS011;3250;42.694;23.278;2022-07-23T13:42:30;11.90;;;4.07;;
6434;SDS011;3250;42.694;23.278;2022-07-23T13:44:56;13.20;;;4.95;;
6434;SDS011;3250;42.694;23.278;2022-07-23T13:47:21;10.68;;;3.58;;
6434;SDS011;3250;42.694;23.278;2022-07-23T13:49:47;12.52;;;3.53;;
6434;SDS011;3250;42.694;23.278;2022-07-23T13:52:12;10.77;;;4.25;;
6434;SDS011;3250;42.694;23.278;2022-07-23T13:54:38;12.38;;;3.78;;
6434;SDS011;3250;42.694;23.278;2022-07-23T13:57:03;11.15;;;3.70;;
6434;SDS011;3250;42.694;23.278;2022-07-23T13:59:29;16.83;;;3.78;;
6434;SDS011;3250;42.694;23.278;2022-07-23T14:01:54;11.43;;;3.85;;
6434;SDS011;3250;42.694;23.278;2022-07-23T14:04:20;8.73;;;3.28;;
6434;SDS011;3250;42.694;23.278;2022-07-23T14:06:46;10.88;;;3.97;;
6434;SDS011;3250;42.694;23.278;2022-07-23T14:09:11;6.68;;;3.20;;
6434;SDS011;3250;42.694;23.278;2022-07-23T14:11:37;17.65;;;4.18;;
6434;SDS011;3250;42.694;23.278;2022-07-23T14:14:03;8.20;;;3.53;;
6434;SDS011;3250;42.694;23.278;2022-07-23T14:16:30;13.18;;;4.22;;
6434;SDS011;3250;42.694;23.278;2022-07-23T14:18:55;10.90;;;4.43;;
6434;SDS011;3250;42.694;23.278;2022-07-23T14:21:21;10.45;;;3.90;;
6434;SDS011;3250;42.694;23.278;2022-07-23T14:23:46;6.38;;;3.05;;
6434;SDS011;3250;42.694;23.278;2022-07-23T14:26:12;11.88;;;4.35;;
6434;SDS011;3250;42.694;23.278;2022-07-23T14:28:37;10.30;;;3.80;;
6434;SDS011;3250;42.694;23.278;2022-07-23T14:31:03;8.05;;;3.75;;
6434;SDS011;3250;42.694;23.278;2022-07-23T14:33:28;10.88;;;4.47;;
6434;SDS011;3250;42.694;23.278;2022-07-23T14:35:54;11.27;;;4.00;;
6434;SDS011;3250;42.694;23.278;2022-07-23T14:38:19;15.73;;;4.25;;
6434;SDS011;3250;42.694;23.278;2022-07-23T14:40:45;8.85;;;3.92;;
6434;SDS011;3250;42.694;23.278;2022-07-23T14:43:10;10.68;;;4.05;;
6434;SDS011;3250;42.694;23.278;2022-07-23T14:45:36;13.68;;;3.60;;
6434;SDS011;3250;42.694;23.278;2022-07-23T14:48:01;14.70;;;4.18;;
6434;SDS011;3250;42.694;23.278;2022-07-23T14:50:28;6.65;;;3.83;;
6434;SDS011;3250;42.694;23.278;2022-07-23T14:52:53;11.65;;;4.45;;
6434;SDS011;3250;42.694;23.278;2022-07-23T14:55:19;10.15;;;3.90;;
6434;SDS011;3250;42.694;23.278;2022-07-23T14:57:44;9.35;;;3.85;;
6434;SDS011;3250;42.694;23.278;2022-07-23T15:00:10;11.80;;;4.13;;
6434;SDS011;3250;42.694;23.278;2022-07-23T15:02:36;8.15;;;4.25;;
6434;SDS011;3250;42.694;23.278;2022-07-23T15:05:02;11.82;;;3.95;;
6434;SDS011;3250;42.694;23.278;2022-07-23T15:07:28;11.93;;;4.13;;
6434;SDS011;3250;42.694;23.278;2022-07-23T15:09:55;9.13;;;3.97;;
6434;SDS011;3250;42.694;23.278;2022-07-23T15:12:21;17.75;;;4.75;;
6434;SDS011;3250;42.694;23.278;2022-07-23T15:14:47;10.85;;;4.38;;
6434;SDS011;3250;42.694;23.278;2022-07-23T15:17:12;12.70;;;4.15;;
6434;SDS011;3250;42.694;23.278;2022-07-23T15:19:38;44.10;;;6.32;;
6434;SDS011;3250;42.694;23.278;2022-07-23T15:22:03;13.68;;;4.20;;
6434;SDS011;3250;42.694;23.278;2022-07-23T15:24:30;18.67;;;4.10;;
6434;SDS011;3250;42.694;23.278;2022-07-23T15:26:55;10.20;;;4.25;;
6434;SDS011;3250;42.694;23.278;2022-07-23T15:29:21;10.48;;;3.67;;
6434;SDS011;3250;42.694;23.278;2022-07-23T15:31:46;8.25;;;4.13;;
6434;SDS011;3250;42.694;23.278;2022-07-23T15:34:12;7.35;;;3.53;;
6434;SDS011;3250;42.694;23.278;2022-07-23T15:36:37;11.98;;;3.97;;
6434;SDS011;3250;42.694;23.278;2022-07-23T15:39:03;16.10;;;4.05;;
6434;SDS011;3250;42.694;23.278;2022-07-23T15:41:29;7.45;;;3.20;;
6434;SDS011;3250;42.694;23.278;2022-07-23T15:43:54;9.23;;;4.38;;